sensor_id;sensor_type;location;lat;lon;timestamp;P1;durP1;ratioP1;P2;durP2;ratioP2
76176;SDS011;64938;47.696;8.066;2023-03-16T00:00:11;1.70;;;1.60;;
76176;SDS011;64938;47.696;8.066;2023-03-16T00:02:39;2.07;;;1.63;;
76176;SDS011;64938;47.696;8.066;2023-03-16T00:05:06;3.07;;;1.37;;
76176;SDS011;64938;47.696;8.066;2023-03-16T00:07:33;2.10;;;1.60;;
76176;SDS011;64938;47.696;8.066;2023-03-16T00:09:59;1.97;;;1.60;;
76176;SDS011;64938;47.696;8.066;2023-03-16T00:12:25;1.43;;;1.33;;
76176;SDS011;64938;47.696;8.066;2023-03-16T00:14:51;1.60;;;1.50;;
76176;SDS011;64938;47.696;8.066;2023-03-16T00:17:18;2.07;;;1.80;;
76176;SDS011;64938;47.696;8.066;2023-03-16T00:19:48;2.13;;;1.73;;
76176;SDS011;64938;47.696;8.066;2023-03-16T00:22:19;3.80;;;3.50;;
76176;SDS011;64938;47.696;8.066;2023-03-16T00:24:46;4.40;;;2.30;;
76176;SDS011;64938;47.696;8.066;2023-03-16T00:27:12;2.53;;;2.33;;
76176;SDS011;64938;47.696;8.066;2023-03-16T00:29:41;2.30;;;2.10;;
76176;SDS011;64938;47.696;8.066;2023-03-16T00:32:12;3.07;;;1.80;;
76176;SDS011;64938;47.696;8.066;2023-03-16T00:34:40;2.30;;;1.67;;
76176;SDS011;64938;47.696;8.066;2023-03-16T00:37:10;2.97;;;2.10;;
76176;SDS011;64938;47.696;8.066;2023-03-16T00:39:41;2.53;;;1.77;;
76176;SDS011;64938;47.696;8.066;2023-03-16T00:42:07;2.47;;;1.87;;
76176;SDS011;64938;47.696;8.066;2023-03-16T00:44:34;1.87;;;1.77;;
76176;SDS011;64938;47.696;8.066;2023-03-16T00:47:02;1.57;;;1.47;;
76176;SDS011;64938;47.696;8.066;2023-03-16T00:49:28;2.43;;;1.50;;
76176;SDS011;64938;47.696;8.066;2023-03-16T00:51:54;2.87;;;1.60;;
76176;SDS011;64938;47.696;8.066;2023-03-16T00:54:19;1.80;;;1.50;;
76176;SDS011;64938;47.696;8.066;2023-03-16T00:56:46;2.93;;;1.90;;
76176;SDS011;64938;47.696;8.066;2023-03-16T00:59:12;2.00;;;1.67;;
76176;SDS011;64938;47.696;8.066;2023-03-16T01:01:37;1.93;;;1.73;;
76176;SDS011;64938;47.696;8.066;2023-03-16T01:04:03;1.97;;;1.77;;
76176;SDS011;64938;47.696;8.066;2023-03-16T01:06:29;5.00;;;1.60;;
76176;SDS011;64938;47.696;8.066;2023-03-16T01:08:56;1.87;;;1.67;;
76176;SDS011;64938;47.696;8.066;2023-03-16T01:11:22;2.50;;;1.70;;
76176;SDS011;64938;47.696;8.066;2023-03-16T01:13:48;1.70;;;1.57;;
76176;SDS011;64938;47.696;8.066;2023-03-16T01:16:15;1.60;;;1.50;;
76176;SDS011;64938;47.696;8.066;2023-03-16T01:18:43;2.23;;;2.03;;
76176;SDS011;64938;47.696;8.066;2023-03-16T01:21:09;2.33;;;1.97;;
76176;SDS011;64938;47.696;8.066;2023-03-16T01:23:39;2.70;;;1.60;;
76176;SDS011;64938;47.696;8.066;2023-03-16T01:26:08;2.00;;;1.67;;
76176;SDS011;64938;47.696;8.066;2023-03-16T01:28:34;2.23;;;2.03;;
76176;SDS011;64938;47.696;8.066;2023-03-16T01:31:02;3.13;;;2.00;;
76176;SDS011;64938;47.696;8.066;2023-03-16T01:33:30;1.83;;;1.70;;
76176;SDS011;64938;47.696;8.066;2023-03-16T01:35:57;2.30;;;1.80;;
76176;SDS011;64938;47.696;8.066;2023-03-16T01:38:24;5.20;;;2.57;;
76176;SDS011;64938;47.696;8.066;2023-03-16T01:40:50;2.10;;;1.60;;
76176;SDS011;64938;47.696;8.066;2023-03-16T01:43:18;3.60;;;2.30;;
76176;SDS011;64938;47.696;8.066;2023-03-16T01:48:32;2.20;;;2.00;;
76176;SDS011;64938;47.696;8.066;2023-03-16T01:51:10;3.00;;;1.80;;
76176;SDS011;64938;47.696;8.066;2023-03-16T01:53:45;5.57;;;2.13;;
76176;SDS011;64938;47.696;8.066;2023-03-16T01:56:15;2.90;;;2.30;;
76176;SDS011;64938;47.696;8.066;2023-03-16T01:58:43;3.73;;;2.43;;
76176;SDS011;64938;47.696;8.066;2023-03-16T02:01:10;3.60;;;2.80;;
76176;SDS011;64938;47.696;8.066;2023-03-16T02:03:38;2.33;;;2.20;;
76176;SDS011;64938;47.696;8.066;2023-03-16T02:06:08;2.13;;;1.90;;
76176;SDS011;64938;47.696;8.066;2023-03-16T02:08:38;5.00;;;2.40;;
76176;SDS011;64938;47.696;8.066;2023-03-16T02:11:04;3.50;;;2.50;;
76176;SDS011;64938;47.696;8.066;2023-03-16T02:13:31;2.57;;;2.37;;
76176;SDS011;64938;47.696;8.066;2023-03-16T02:16:01;3.90;;;2.60;;
76176;SDS011;64938;47.696;8.066;2023-03-16T02:18:28;3.00;;;2.13;;
76176;SDS011;64938;47.696;8.066;2023-03-16T02:23:46;2.60;;;2.40;;
76176;SDS011;64938;47.696;8.066;2023-03-16T02:31:50;2.20;;;2.00;;
76176;SDS011;64938;47.696;8.066;2023-03-16T02:34:17;2.43;;;2.10;;
76176;SDS011;64938;47.696;8.066;2023-03-16T02:36:44;3.00;;;2.43;;
76176;SDS011;64938;47.696;8.066;2023-03-16T02:39:11;2.87;;;2.30;;
76176;SDS011;64938;47.696;8.066;2023-03-16T02:44:34;5.33;;;2.20;;
76176;SDS011;64938;47.696;8.066;2023-03-16T02:47:02;3.77;;;2.23;;
76176;SDS011;64938;47.696;8.066;2023-03-16T02:49:35;2.00;;;1.80;;
76176;SDS011;64938;47.696;8.066;2023-03-16T02:52:03;3.50;;;2.10;;
76176;SDS011;64938;47.696;8.066;2023-03-16T02:54:29;3.60;;;2.30;;
76176;SDS011;64938;47.696;8.066;2023-03-16T02:56:55;2.97;;;2.67;;
76176;SDS011;64938;47.696;8.066;2023-03-16T02:59:21;2.53;;;2.33;;
76176;SDS011;64938;47.696;8.066;2023-03-16T03:01:46;3.57;;;2.30;;
76176;SDS011;64938;47.696;8.066;2023-03-16T03:04:12;2.50;;;2.30;;
76176;SDS011;64938;47.696;8.066;2023-03-16T03:06:38;2.50;;;2.30;;
76176;SDS011;64938;47.696;8.066;2023-03-16T03:09:05;3.00;;;2.30;;
76176;SDS011;64938;47.696;8.066;2023-03-16T03:11:32;2.40;;;2.20;;
76176;SDS011;64938;47.696;8.066;2023-03-16T03:13:57;3.00;;;2.37;;
76176;SDS011;64938;47.696;8.066;2023-03-16T03:16:23;4.93;;;2.50;;
76176;SDS011;64938;47.696;8.066;2023-03-16T03:18:49;2.53;;;2.10;;
76176;SDS011;64938;47.696;8.066;2023-03-16T03:21:16;2.70;;;2.30;;
76176;SDS011;64938;47.696;8.066;2023-03-16T03:23:42;2.80;;;2.50;;
76176;SDS011;64938;47.696;8.066;2023-03-16T03:26:11;2.33;;;2.13;;
76176;SDS011;64938;47.696;8.066;2023-03-16T03:28:39;3.67;;;2.50;;
76176;SDS011;64938;47.696;8.066;2023-03-16T03:31:05;2.90;;;2.20;;
76176;SDS011;64938;47.696;8.066;2023-03-16T03:33:31;2.30;;;1.73;;
76176;SDS011;64938;47.696;8.066;2023-03-16T03:35:58;3.60;;;2.37;;
76176;SDS011;64938;47.696;8.066;2023-03-16T03:38:24;4.43;;;2.27;;
76176;SDS011;64938;47.696;8.066;2023-03-16T03:40:51;3.20;;;2.63;;
76176;SDS011;64938;47.696;8.066;2023-03-16T03:43:17;2.40;;;2.20;;
76176;SDS011;64938;47.696;8.066;2023-03-16T03:45:44;4.40;;;2.47;;
76176;SDS011;64938;47.696;8.066;2023-03-16T03:48:10;4.43;;;3.00;;
76176;SDS011;64938;47.696;8.066;2023-03-16T03:50:35;8.20;;;2.70;;
76176;SDS011;64938;47.696;8.066;2023-03-16T03:53:03;3.20;;;2.80;;
76176;SDS011;64938;47.696;8.066;2023-03-16T03:55:29;3.10;;;2.80;;
76176;SDS011;64938;47.696;8.066;2023-03-16T03:57:55;4.13;;;3.17;;
76176;SDS011;64938;47.696;8.066;2023-03-16T04:00:21;6.23;;;2.80;;
76176;SDS011;64938;47.696;8.066;2023-03-16T04:02:47;2.63;;;2.40;;
76176;SDS011;64938;47.696;8.066;2023-03-16T04:05:13;3.30;;;2.70;;
76176;SDS011;64938;47.696;8.066;2023-03-16T04:07:39;6.73;;;2.73;;
76176;SDS011;64938;47.696;8.066;2023-03-16T04:10:06;3.43;;;2.90;;
76176;SDS011;64938;47.696;8.066;2023-03-16T04:12:33;3.47;;;2.73;;
76176;SDS011;64938;47.696;8.066;2023-03-16T04:14:59;4.60;;;2.87;;
76176;SDS011;64938;47.696;8.066;2023-03-16T04:17:25;3.90;;;2.73;;
76176;SDS011;64938;47.696;8.066;2023-03-16T04:19:51;3.37;;;2.77;;
76176;SDS011;64938;47.696;8.066;2023-03-16T04:22:16;8.83;;;3.30;;
76176;SDS011;64938;47.696;8.066;2023-03-16T04:24:42;3.57;;;2.87;;
76176;SDS011;64938;47.696;8.066;2023-03-16T04:27:09;3.87;;;2.60;;
76176;SDS011;64938;47.696;8.066;2023-03-16T04:29:36;5.80;;;2.90;;
76176;SDS011;64938;47.696;8.066;2023-03-16T04:32:04;4.83;;;3.00;;
76176;SDS011;64938;47.696;8.066;2023-03-16T04:34:31;4.90;;;4.00;;
76176;SDS011;64938;47.696;8.066;2023-03-16T04:36:57;3.90;;;3.00;;
76176;SDS011;64938;47.696;8.066;2023-03-16T04:39:23;4.53;;;3.50;;
76176;SDS011;64938;47.696;8.066;2023-03-16T04:41:49;3.47;;;3.00;;
76176;SDS011;64938;47.696;8.066;2023-03-16T04:44:15;4.50;;;3.17;;
76176;SDS011;64938;47.696;8.066;2023-03-16T04:46:42;4.03;;;3.53;;
76176;SDS011;64938;47.696;8.066;2023-03-16T04:49:08;3.67;;;3.30;;
76176;SDS011;64938;47.696;8.066;2023-03-16T04:51:34;3.90;;;3.30;;
76176;SDS011;64938;47.696;8.066;2023-03-16T04:54:02;4.73;;;3.30;;
76176;SDS011;64938;47.696;8.066;2023-03-16T04:56:28;3.53;;;2.73;;
76176;SDS011;64938;47.696;8.066;2023-03-16T04:58:53;3.50;;;3.20;;
76176;SDS011;64938;47.696;8.066;2023-03-16T05:01:21;5.17;;;3.50;;
76176;SDS011;64938;47.696;8.066;2023-03-16T05:03:46;3.67;;;2.87;;
76176;SDS011;64938;47.696;8.066;2023-03-16T05:06:14;3.40;;;3.10;;
76176;SDS011;64938;47.696;8.066;2023-03-16T05:08:39;5.50;;;2.87;;
76176;SDS011;64938;47.696;8.066;2023-03-16T05:11:05;3.07;;;2.77;;
76176;SDS011;64938;47.696;8.066;2023-03-16T05:13:31;3.70;;;2.80;;
76176;SDS011;64938;47.696;8.066;2023-03-16T05:15:57;3.77;;;2.90;;
76176;SDS011;64938;47.696;8.066;2023-03-16T05:18:23;4.37;;;3.00;;
76176;SDS011;64938;47.696;8.066;2023-03-16T05:20:50;3.43;;;3.07;;
76176;SDS011;64938;47.696;8.066;2023-03-16T05:23:18;4.63;;;3.03;;
76176;SDS011;64938;47.696;8.066;2023-03-16T05:25:45;2.97;;;2.77;;
76176;SDS011;64938;47.696;8.066;2023-03-16T05:28:11;3.77;;;2.50;;
76176;SDS011;64938;47.696;8.066;2023-03-16T05:30:37;4.70;;;2.60;;
76176;SDS011;64938;47.696;8.066;2023-03-16T05:33:03;3.17;;;2.93;;
76176;SDS011;64938;47.696;8.066;2023-03-16T05:35:30;3.53;;;2.73;;
76176;SDS011;64938;47.696;8.066;2023-03-16T05:37:56;2.93;;;2.50;;
76176;SDS011;64938;47.696;8.066;2023-03-16T05:40:22;4.30;;;2.70;;
76176;SDS011;64938;47.696;8.066;2023-03-16T05:42:48;3.77;;;3.30;;
76176;SDS011;64938;47.696;8.066;2023-03-16T05:45:18;3.13;;;2.80;;
76176;SDS011;64938;47.696;8.066;2023-03-16T05:47:44;4.53;;;2.90;;
76176;SDS011;64938;47.696;8.066;2023-03-16T05:50:10;5.20;;;2.70;;
76176;SDS011;64938;47.696;8.066;2023-03-16T05:52:37;7.07;;;3.17;;
76176;SDS011;64938;47.696;8.066;2023-03-16T05:55:04;3.43;;;2.77;;
76176;SDS011;64938;47.696;8.066;2023-03-16T05:57:31;4.43;;;2.90;;
76176;SDS011;64938;47.696;8.066;2023-03-16T05:59:58;2.83;;;2.60;;
76176;SDS011;64938;47.696;8.066;2023-03-16T06:02:28;2.60;;;2.40;;
76176;SDS011;64938;47.696;8.066;2023-03-16T06:04:53;3.47;;;2.77;;
76176;SDS011;64938;47.696;8.066;2023-03-16T06:07:19;5.40;;;2.60;;
76176;SDS011;64938;47.696;8.066;2023-03-16T06:09:45;3.40;;;2.60;;
76176;SDS011;64938;47.696;8.066;2023-03-16T06:12:11;4.60;;;2.60;;
76176;SDS011;64938;47.696;8.066;2023-03-16T06:14:37;2.73;;;2.53;;
76176;SDS011;64938;47.696;8.066;2023-03-16T06:17:03;2.70;;;2.50;;
76176;SDS011;64938;47.696;8.066;2023-03-16T06:19:29;3.60;;;2.40;;
76176;SDS011;64938;47.696;8.066;2023-03-16T06:21:55;2.80;;;2.60;;
76176;SDS011;64938;47.696;8.066;2023-03-16T06:24:22;4.70;;;2.50;;
76176;SDS011;64938;47.696;8.066;2023-03-16T06:26:47;2.53;;;2.33;;
76176;SDS011;64938;47.696;8.066;2023-03-16T06:29:13;2.00;;;1.80;;
76176;SDS011;64938;47.696;8.066;2023-03-16T06:31:39;3.93;;;2.43;;
76176;SDS011;64938;47.696;8.066;2023-03-16T06:34:05;3.27;;;2.37;;
76176;SDS011;64938;47.696;8.066;2023-03-16T06:36:30;5.07;;;2.60;;
76176;SDS011;64938;47.696;8.066;2023-03-16T06:38:56;3.27;;;2.33;;
76176;SDS011;64938;47.696;8.066;2023-03-16T06:41:22;2.10;;;1.90;;
76176;SDS011;64938;47.696;8.066;2023-03-16T06:43:48;2.40;;;2.20;;
76176;SDS011;64938;47.696;8.066;2023-03-16T06:46:13;3.40;;;1.80;;
76176;SDS011;64938;47.696;8.066;2023-03-16T06:48:39;1.93;;;1.77;;
76176;SDS011;64938;47.696;8.066;2023-03-16T06:51:06;1.93;;;1.63;;
76176;SDS011;64938;47.696;8.066;2023-03-16T06:53:32;2.60;;;1.90;;
76176;SDS011;64938;47.696;8.066;2023-03-16T06:55:58;4.50;;;2.13;;
76176;SDS011;64938;47.696;8.066;2023-03-16T06:58:23;1.80;;;1.70;;
76176;SDS011;64938;47.696;8.066;2023-03-16T07:00:49;2.10;;;1.83;;
76176;SDS011;64938;47.696;8.066;2023-03-16T07:03:16;2.70;;;2.27;;
76176;SDS011;64938;47.696;8.066;2023-03-16T07:05:43;1.77;;;1.50;;
76176;SDS011;64938;47.696;8.066;2023-03-16T07:08:09;2.27;;;1.90;;
76176;SDS011;64938;47.696;8.066;2023-03-16T07:10:34;1.77;;;1.57;;
76176;SDS011;64938;47.696;8.066;2023-03-16T07:13:00;2.37;;;1.70;;
76176;SDS011;64938;47.696;8.066;2023-03-16T07:15:26;2.13;;;1.77;;
76176;SDS011;64938;47.696;8.066;2023-03-16T07:17:52;2.20;;;1.97;;
76176;SDS011;64938;47.696;8.066;2023-03-16T07:20:18;4.83;;;1.90;;
76176;SDS011;64938;47.696;8.066;2023-03-16T07:22:43;1.97;;;1.70;;
76176;SDS011;64938;47.696;8.066;2023-03-16T07:25:09;2.13;;;1.63;;
76176;SDS011;64938;47.696;8.066;2023-03-16T07:27:36;3.03;;;2.07;;
76176;SDS011;64938;47.696;8.066;2023-03-16T07:30:03;4.30;;;2.07;;
76176;SDS011;64938;47.696;8.066;2023-03-16T07:32:30;1.80;;;1.70;;
76176;SDS011;64938;47.696;8.066;2023-03-16T07:34:56;2.90;;;1.80;;
76176;SDS011;64938;47.696;8.066;2023-03-16T07:37:23;1.90;;;1.47;;
76176;SDS011;64938;47.696;8.066;2023-03-16T07:39:50;2.17;;;1.97;;
76176;SDS011;64938;47.696;8.066;2023-03-16T07:42:16;2.27;;;1.80;;
76176;SDS011;64938;47.696;8.066;2023-03-16T07:44:42;2.33;;;1.90;;
76176;SDS011;64938;47.696;8.066;2023-03-16T07:47:10;1.93;;;1.60;;
76176;SDS011;64938;47.696;8.066;2023-03-16T07:49:37;1.93;;;1.50;;
76176;SDS011;64938;47.696;8.066;2023-03-16T07:52:03;2.60;;;1.90;;
76176;SDS011;64938;47.696;8.066;2023-03-16T07:54:28;3.20;;;1.77;;
76176;SDS011;64938;47.696;8.066;2023-03-16T07:56:54;1.60;;;1.50;;
76176;SDS011;64938;47.696;8.066;2023-03-16T07:59:19;3.80;;;2.00;;
76176;SDS011;64938;47.696;8.066;2023-03-16T08:01:45;3.37;;;1.70;;
76176;SDS011;64938;47.696;8.066;2023-03-16T08:04:11;2.77;;;1.77;;
76176;SDS011;64938;47.696;8.066;2023-03-16T08:06:37;1.70;;;1.60;;
76176;SDS011;64938;47.696;8.066;2023-03-16T08:09:03;1.77;;;1.57;;
76176;SDS011;64938;47.696;8.066;2023-03-16T08:11:29;1.50;;;1.40;;
76176;SDS011;64938;47.696;8.066;2023-03-16T08:13:55;2.83;;;1.67;;
76176;SDS011;64938;47.696;8.066;2023-03-16T08:16:22;2.00;;;1.80;;
76176;SDS011;64938;47.696;8.066;2023-03-16T08:18:48;2.70;;;1.90;;
76176;SDS011;64938;47.696;8.066;2023-03-16T08:21:15;1.60;;;1.50;;
76176;SDS011;64938;47.696;8.066;2023-03-16T08:23:41;1.67;;;1.53;;
76176;SDS011;64938;47.696;8.066;2023-03-16T08:26:15;1.80;;;1.60;;
76176;SDS011;64938;47.696;8.066;2023-03-16T08:28:42;1.80;;;1.60;;
76176;SDS011;64938;47.696;8.066;2023-03-16T08:31:10;2.03;;;1.80;;
76176;SDS011;64938;47.696;8.066;2023-03-16T08:33:36;2.93;;;1.57;;
76176;SDS011;64938;47.696;8.066;2023-03-16T08:36:04;2.17;;;1.73;;
76176;SDS011;64938;47.696;8.066;2023-03-16T08:38:31;3.67;;;1.90;;
76176;SDS011;64938;47.696;8.066;2023-03-16T08:40:58;1.53;;;1.43;;
76176;SDS011;64938;47.696;8.066;2023-03-16T08:43:24;1.83;;;1.63;;
76176;SDS011;64938;47.696;8.066;2023-03-16T08:45:51;2.00;;;1.80;;
76176;SDS011;64938;47.696;8.066;2023-03-16T08:48:18;4.80;;;1.90;;
76176;SDS011;64938;47.696;8.066;2023-03-16T08:50:44;2.60;;;1.87;;
76176;SDS011;64938;47.696;8.066;2023-03-16T08:53:11;4.97;;;1.80;;
76176;SDS011;64938;47.696;8.066;2023-03-16T08:55:37;2.50;;;1.90;;
76176;SDS011;64938;47.696;8.066;2023-03-16T08:58:06;1.93;;;1.73;;
76176;SDS011;64938;47.696;8.066;2023-03-16T09:00:32;1.90;;;1.80;;
76176;SDS011;64938;47.696;8.066;2023-03-16T09:02:58;2.00;;;1.80;;
76176;SDS011;64938;47.696;8.066;2023-03-16T09:05:24;2.10;;;1.80;;
76176;SDS011;64938;47.696;8.066;2023-03-16T09:07:51;2.20;;;2.00;;
76176;SDS011;64938;47.696;8.066;2023-03-16T09:10:18;2.10;;;2.00;;
76176;SDS011;64938;47.696;8.066;2023-03-16T09:12:47;2.43;;;2.10;;
76176;SDS011;64938;47.696;8.066;2023-03-16T09:15:14;2.07;;;1.87;;
76176;SDS011;64938;47.696;8.066;2023-03-16T09:17:40;3.17;;;1.63;;
76176;SDS011;64938;47.696;8.066;2023-03-16T09:20:07;2.60;;;2.07;;
76176;SDS011;64938;47.696;8.066;2023-03-16T09:22:35;2.00;;;1.70;;
76176;SDS011;64938;47.696;8.066;2023-03-16T09:25:03;1.77;;;1.67;;
76176;SDS011;64938;47.696;8.066;2023-03-16T09:27:31;3.60;;;1.80;;
76176;SDS011;64938;47.696;8.066;2023-03-16T09:29:58;2.10;;;1.90;;
76176;SDS011;64938;47.696;8.066;2023-03-16T09:32:26;2.00;;;1.77;;
76176;SDS011;64938;47.696;8.066;2023-03-16T09:34:52;1.63;;;1.50;;
76176;SDS011;64938;47.696;8.066;2023-03-16T09:37:19;2.20;;;1.40;;
76176;SDS011;64938;47.696;8.066;2023-03-16T09:39:45;1.53;;;1.43;;
76176;SDS011;64938;47.696;8.066;2023-03-16T09:42:16;3.30;;;1.97;;
76176;SDS011;64938;47.696;8.066;2023-03-16T09:44:50;1.97;;;1.77;;
76176;SDS011;64938;47.696;8.066;2023-03-16T09:47:24;1.70;;;1.60;;
76176;SDS011;64938;47.696;8.066;2023-03-16T09:49:52;2.67;;;1.73;;
76176;SDS011;64938;47.696;8.066;2023-03-16T09:52:24;4.17;;;2.10;;
76176;SDS011;64938;47.696;8.066;2023-03-16T09:54:58;1.77;;;1.67;;
76176;SDS011;64938;47.696;8.066;2023-03-16T09:57:27;2.23;;;2.03;;
76176;SDS011;64938;47.696;8.066;2023-03-16T09:59:56;2.50;;;2.00;;
76176;SDS011;64938;47.696;8.066;2023-03-16T10:05:00;1.80;;;1.70;;
76176;SDS011;64938;47.696;8.066;2023-03-16T10:07:53;2.60;;;2.23;;
76176;SDS011;64938;47.696;8.066;2023-03-16T10:13:04;2.97;;;1.83;;
76176;SDS011;64938;47.696;8.066;2023-03-16T10:15:42;2.67;;;2.10;;
76176;SDS011;64938;47.696;8.066;2023-03-16T10:18:09;2.67;;;2.00;;
76176;SDS011;64938;47.696;8.066;2023-03-16T10:20:38;2.27;;;1.80;;
76176;SDS011;64938;47.696;8.066;2023-03-16T10:23:12;2.10;;;1.90;;
76176;SDS011;64938;47.696;8.066;2023-03-16T10:25:46;2.30;;;2.10;;
76176;SDS011;64938;47.696;8.066;2023-03-16T10:28:15;2.20;;;1.90;;
76176;SDS011;64938;47.696;8.066;2023-03-16T10:30:42;2.53;;;1.90;;
76176;SDS011;64938;47.696;8.066;2023-03-16T10:33:16;2.67;;;2.07;;
76176;SDS011;64938;47.696;8.066;2023-03-16T10:41:16;3.90;;;3.50;;
76176;SDS011;64938;47.696;8.066;2023-03-16T10:43:49;2.00;;;1.80;;
76176;SDS011;64938;47.696;8.066;2023-03-16T10:46:18;2.90;;;2.23;;
76176;SDS011;64938;47.696;8.066;2023-03-16T10:48:52;2.63;;;2.43;;
76176;SDS011;64938;47.696;8.066;2023-03-16T10:51:24;2.70;;;2.50;;
76176;SDS011;64938;47.696;8.066;2023-03-16T10:53:52;2.60;;;2.20;;
76176;SDS011;64938;47.696;8.066;2023-03-16T10:56:21;2.73;;;2.17;;
76176;SDS011;64938;47.696;8.066;2023-03-16T10:58:49;2.93;;;2.73;;
76176;SDS011;64938;47.696;8.066;2023-03-16T11:01:16;3.13;;;2.83;;
76176;SDS011;64938;47.696;8.066;2023-03-16T11:03:47;2.73;;;2.50;;
76176;SDS011;64938;47.696;8.066;2023-03-16T11:06:18;2.60;;;2.40;;
76176;SDS011;64938;47.696;8.066;2023-03-16T11:08:47;2.83;;;2.63;;
76176;SDS011;64938;47.696;8.066;2023-03-16T11:11:15;3.13;;;2.20;;
76176;SDS011;64938;47.696;8.066;2023-03-16T11:13:43;2.40;;;2.20;;
76176;SDS011;64938;47.696;8.066;2023-03-16T11:18:56;2.63;;;2.43;;
76176;SDS011;64938;47.696;8.066;2023-03-16T11:21:29;3.10;;;2.80;;
76176;SDS011;64938;47.696;8.066;2023-03-16T11:24:14;4.17;;;2.80;;
76176;SDS011;64938;47.696;8.066;2023-03-16T11:26:44;4.23;;;3.30;;
76176;SDS011;64938;47.696;8.066;2023-03-16T11:29:20;3.23;;;2.83;;
76176;SDS011;64938;47.696;8.066;2023-03-16T11:34:28;3.40;;;3.10;;
76176;SDS011;64938;47.696;8.066;2023-03-16T11:44:52;2.67;;;2.47;;
76176;SDS011;64938;47.696;8.066;2023-03-16T11:47:29;2.53;;;2.13;;
76176;SDS011;64938;47.696;8.066;2023-03-16T12:09:19;2.40;;;2.20;;
76176;SDS011;64938;47.696;8.066;2023-03-16T12:12:30;3.13;;;2.50;;
76176;SDS011;64938;47.696;8.066;2023-03-16T12:17:38;2.30;;;2.10;;
76176;SDS011;64938;47.696;8.066;2023-03-16T12:20:09;2.43;;;2.23;;
76176;SDS011;64938;47.696;8.066;2023-03-16T12:22:49;3.10;;;2.63;;
76176;SDS011;64938;47.696;8.066;2023-03-16T12:25:20;2.50;;;2.30;;
76176;SDS011;64938;47.696;8.066;2023-03-16T12:27:51;2.33;;;2.13;;
76176;SDS011;64938;47.696;8.066;2023-03-16T12:30:22;2.67;;;2.47;;
76176;SDS011;64938;47.696;8.066;2023-03-16T12:33:18;2.40;;;2.20;;
76176;SDS011;64938;47.696;8.066;2023-03-16T12:35:54;3.10;;;2.17;;
76176;SDS011;64938;47.696;8.066;2023-03-16T12:38:30;2.30;;;2.10;;
76176;SDS011;64938;47.696;8.066;2023-03-16T12:43:54;2.70;;;2.50;;
76176;SDS011;64938;47.696;8.066;2023-03-16T12:46:38;2.33;;;2.10;;
76176;SDS011;64938;47.696;8.066;2023-03-16T12:49:13;3.30;;;2.47;;
76176;SDS011;64938;47.696;8.066;2023-03-16T12:51:41;2.10;;;1.90;;
76176;SDS011;64938;47.696;8.066;2023-03-16T12:54:24;2.70;;;1.93;;
76176;SDS011;64938;47.696;8.066;2023-03-16T12:56:51;2.53;;;2.33;;
76176;SDS011;64938;47.696;8.066;2023-03-16T12:59:20;3.50;;;2.53;;
76176;SDS011;64938;47.696;8.066;2023-03-16T13:01:49;2.50;;;2.30;;
76176;SDS011;64938;47.696;8.066;2023-03-16T13:04:17;2.23;;;2.03;;
76176;SDS011;64938;47.696;8.066;2023-03-16T13:06:48;2.00;;;1.80;;
76176;SDS011;64938;47.696;8.066;2023-03-16T13:09:18;1.97;;;1.77;;
76176;SDS011;64938;47.696;8.066;2023-03-16T13:11:47;4.17;;;3.13;;
76176;SDS011;64938;47.696;8.066;2023-03-16T13:14:15;2.67;;;2.17;;
76176;SDS011;64938;47.696;8.066;2023-03-16T13:17:03;3.07;;;2.33;;
76176;SDS011;64938;47.696;8.066;2023-03-16T13:19:31;2.93;;;2.40;;
76176;SDS011;64938;47.696;8.066;2023-03-16T13:24:49;2.33;;;2.13;;
76176;SDS011;64938;47.696;8.066;2023-03-16T13:27:21;3.00;;;2.17;;
76176;SDS011;64938;47.696;8.066;2023-03-16T13:29:52;2.60;;;2.40;;
76176;SDS011;64938;47.696;8.066;2023-03-16T13:32:19;2.50;;;2.30;;
76176;SDS011;64938;47.696;8.066;2023-03-16T13:34:47;2.97;;;2.33;;
76176;SDS011;64938;47.696;8.066;2023-03-16T13:37:15;2.37;;;2.17;;
76176;SDS011;64938;47.696;8.066;2023-03-16T13:39:50;2.60;;;2.20;;
76176;SDS011;64938;47.696;8.066;2023-03-16T13:42:18;2.90;;;2.07;;
76176;SDS011;64938;47.696;8.066;2023-03-16T13:44:46;2.77;;;1.97;;
76176;SDS011;64938;47.696;8.066;2023-03-16T13:47:14;2.47;;;2.27;;
76176;SDS011;64938;47.696;8.066;2023-03-16T13:49:44;2.67;;;2.43;;
76176;SDS011;64938;47.696;8.066;2023-03-16T13:52:15;3.40;;;2.60;;
76176;SDS011;64938;47.696;8.066;2023-03-16T13:54:47;2.67;;;2.37;;
76176;SDS011;64938;47.696;8.066;2023-03-16T13:57:14;2.50;;;2.30;;
76176;SDS011;64938;47.696;8.066;2023-03-16T13:59:40;2.60;;;2.40;;
76176;SDS011;64938;47.696;8.066;2023-03-16T14:02:10;3.23;;;2.23;;
76176;SDS011;64938;47.696;8.066;2023-03-16T14:04:41;2.90;;;2.50;;
76176;SDS011;64938;47.696;8.066;2023-03-16T14:07:12;2.60;;;2.40;;
76176;SDS011;64938;47.696;8.066;2023-03-16T14:09:41;2.50;;;2.20;;
76176;SDS011;64938;47.696;8.066;2023-03-16T14:12:10;2.40;;;2.20;;
76176;SDS011;64938;47.696;8.066;2023-03-16T14:14:39;2.83;;;2.50;;
76176;SDS011;64938;47.696;8.066;2023-03-16T14:17:10;3.37;;;2.53;;
76176;SDS011;64938;47.696;8.066;2023-03-16T14:19:40;3.13;;;2.83;;
76176;SDS011;64938;47.696;8.066;2023-03-16T14:22:11;3.50;;;2.83;;
76176;SDS011;64938;47.696;8.066;2023-03-16T14:24:37;4.77;;;3.50;;
76176;SDS011;64938;47.696;8.066;2023-03-16T14:27:24;3.40;;;2.70;;
76176;SDS011;64938;47.696;8.066;2023-03-16T14:29:58;3.07;;;2.77;;
76176;SDS011;64938;47.696;8.066;2023-03-16T14:32:28;3.30;;;2.60;;
76176;SDS011;64938;47.696;8.066;2023-03-16T14:35:14;2.83;;;2.33;;
76176;SDS011;64938;47.696;8.066;2023-03-16T14:37:41;3.50;;;2.40;;
76176;SDS011;64938;47.696;8.066;2023-03-16T14:40:35;2.50;;;1.93;;
76176;SDS011;64938;47.696;8.066;2023-03-16T14:42:55;2.70;;;2.30;;
76176;SDS011;64938;47.696;8.066;2023-03-16T14:45:25;3.00;;;2.70;;
76176;SDS011;64938;47.696;8.066;2023-03-16T14:47:54;3.03;;;2.53;;
76176;SDS011;64938;47.696;8.066;2023-03-16T14:50:27;3.10;;;2.50;;
76176;SDS011;64938;47.696;8.066;2023-03-16T14:52:53;2.30;;;2.10;;
76176;SDS011;64938;47.696;8.066;2023-03-16T14:55:20;4.80;;;2.33;;
76176;SDS011;64938;47.696;8.066;2023-03-16T14:57:48;2.43;;;2.23;;
76176;SDS011;64938;47.696;8.066;2023-03-16T15:00:16;2.80;;;2.27;;
76176;SDS011;64938;47.696;8.066;2023-03-16T15:02:44;3.67;;;2.33;;
76176;SDS011;64938;47.696;8.066;2023-03-16T15:05:21;2.20;;;2.00;;
76176;SDS011;64938;47.696;8.066;2023-03-16T15:07:50;2.40;;;2.20;;
76176;SDS011;64938;47.696;8.066;2023-03-16T15:12:44;3.43;;;2.73;;
76176;SDS011;64938;47.696;8.066;2023-03-16T15:15:16;4.10;;;2.47;;
76176;SDS011;64938;47.696;8.066;2023-03-16T15:17:44;2.90;;;2.60;;
76176;SDS011;64938;47.696;8.066;2023-03-16T15:20:12;3.83;;;2.77;;
76176;SDS011;64938;47.696;8.066;2023-03-16T15:22:40;4.00;;;2.83;;
76176;SDS011;64938;47.696;8.066;2023-03-16T15:28:10;3.10;;;2.80;;
76176;SDS011;64938;47.696;8.066;2023-03-16T15:30:37;3.47;;;2.90;;
76176;SDS011;64938;47.696;8.066;2023-03-16T15:33:05;3.20;;;2.83;;
76176;SDS011;64938;47.696;8.066;2023-03-16T15:35:31;3.10;;;2.80;;
76176;SDS011;64938;47.696;8.066;2023-03-16T15:38:04;5.63;;;2.70;;
76176;SDS011;64938;47.696;8.066;2023-03-16T15:40:33;2.60;;;2.20;;
76176;SDS011;64938;47.696;8.066;2023-03-16T15:42:59;3.53;;;3.07;;
76176;SDS011;64938;47.696;8.066;2023-03-16T15:45:26;3.17;;;2.87;;
76176;SDS011;64938;47.696;8.066;2023-03-16T15:47:52;3.13;;;2.83;;
76176;SDS011;64938;47.696;8.066;2023-03-16T15:50:20;3.40;;;3.07;;
76176;SDS011;64938;47.696;8.066;2023-03-16T15:52:49;3.00;;;2.70;;
76176;SDS011;64938;47.696;8.066;2023-03-16T15:55:18;3.13;;;2.60;;
76176;SDS011;64938;47.696;8.066;2023-03-16T15:57:48;3.50;;;2.83;;
76176;SDS011;64938;47.696;8.066;2023-03-16T16:00:21;2.87;;;2.60;;
76176;SDS011;64938;47.696;8.066;2023-03-16T16:02:52;3.97;;;3.07;;
76176;SDS011;64938;47.696;8.066;2023-03-16T16:05:18;4.37;;;2.97;;